Time;durP1;ratioP1;P1;durP2;ratioP2;P2;SDS_P1;SDS_P2;PMS_P1;PMS_P2;Temp;Humidity;BMP_temperature;BMP_pressure;BME280_temperature;BME280_humidity;BME280_pressure;Samples;Min_cycle;Max_cycle;Signal;HPM_P1;HPM_P2
2022/09/16 00:01:20;;;;;;;6.03;3.65;;;12.60;99.90;;;;;;6163326;23;20017;-86
2022/09/16 00:04:00;;;;;;;3.70;3.05;;;12.60;99.90;;;;;;6179452;23;20329;-86
2022/09/16 00:06:31;;;;;;;4.85;4.35;;;12.60;99.90;;;;;;6159703;23;20013;-87
2022/09/16 00:09:03;;;;;;;6.63;4.38;;;12.60;99.90;;;;;;6158033;23;20032;-86
2022/09/16 00:11:34;;;;;;;6.18;4.68;;;12.60;99.90;;;;;;6158571;23;20020;-86
2022/09/16 00:14:07;;;;;;;4.53;3.47;;;12.50;99.90;;;;;;6193128;23;20025;-86
2022/09/16 00:16:37;;;;;;;5.85;3.50;;;12.60;99.90;;;;;;6189804;23;20025;-86
2022/09/16 00:19:05;;;;;;;6.85;4.45;;;12.50;99.90;;;;;;6134375;23;20028;-86
2022/09/16 00:21:38;;;;;;;6.70;4.97;;;12.50;99.90;;;;;;6157931;23;20048;-86
2022/09/16 00:24:17;;;;;;;4.82;4.32;;;12.50;99.90;;;;;;6135052;23;20028;-86
2022/09/16 00:26:45;;;;;;;5.20;4.70;;;12.50;99.90;;;;;;6135070;23;20013;-86
2022/09/16 00:29:15;;;;;;;5.55;4.00;;;12.60;99.90;;;;;;6158801;23;20024;-86
2022/09/16 00:31:46;;;;;;;5.38;4.88;;;12.60;99.90;;;;;;6134768;23;20017;-86
2022/09/16 00:34:19;;;;;;;5.35;4.82;;;12.60;99.90;;;;;;6133466;23;20032;-86
2022/09/16 00:36:47;;;;;;;7.53;5.57;;;12.60;99.90;;;;;;6207508;23;20423;-85
2022/09/16 00:39:15;;;;;;;4.65;3.75;;;12.60;99.90;;;;;;6207393;23;20017;-86
2022/09/16 00:41:43;;;;;;;5.28;4.57;;;12.60;99.90;;;;;;6209387;23;20032;-86
2022/09/16 00:44:48;;;;;;;6.47;5.07;;;12.60;99.90;;;;;;6108471;23;20468;-86
2022/09/16 00:47:37;;;;;;;5.57;4.95;;;12.60;99.90;;;;;;6208576;23;20021;-86
2022/09/16 00:50:11;;;;;;;5.60;4.75;;;12.60;99.90;;;;;;6158195;23;20495;-86
2022/09/16 00:53:44;;;;;;;6.68;4.90;;;12.50;99.90;;;;;;6108279;23;20017;-86
2022/09/16 00:56:25;;;;;;;4.88;4.28;;;12.40;99.90;;;;;;6191261;23;20014;-86
2022/09/16 00:59:05;;;;;;;4.82;4.43;;;12.50;99.90;;;;;;6158555;23;20017;-86
2022/09/16 01:01:43;;;;;;;7.65;5.82;;;12.50;99.90;;;;;;6185672;23;20028;-86
2022/09/16 01:04:21;;;;;;;5.22;4.72;;;12.50;99.90;;;;;;6157216;23;20021;-86
2022/09/16 01:06:51;;;;;;;5.43;4.85;;;12.50;99.90;;;;;;6207472;23;20021;-86
2022/09/16 01:09:24;;;;;;;5.47;4.72;;;12.50;99.90;;;;;;6143491;23;20029;-86
2022/09/16 01:11:55;;;;;;;5.00;4.60;;;12.60;99.90;;;;;;6156882;23;20429;-87
2022/09/16 01:17:38;;;;;;;4.68;4.13;;;12.70;99.90;;;;;;6160279;23;20032;-86
2022/09/16 01:20:43;;;;;;;4.43;4.13;;;12.70;99.90;;;;;;6141792;23;20333;-86
2022/09/16 01:23:38;;;;;;;5.15;4.30;;;12.70;99.90;;;;;;6097563;23;20013;-86
2022/09/16 01:26:29;;;;;;;7.65;5.10;;;12.70;99.90;;;;;;6134142;23;20047;-86
2022/09/16 01:29:38;;;;;;;5.50;4.05;;;12.70;99.90;;;;;;6157278;23;20021;-87
2022/09/16 01:32:34;;;;;;;3.90;3.17;;;12.70;99.90;;;;;;6156722;23;20036;-86
2022/09/16 01:35:47;;;;;;;3.45;3.15;;;12.60;99.90;;;;;;6134015;23;20027;-86
2022/09/16 01:38:55;;;;;;;4.47;4.07;;;12.50;99.90;;;;;;6092992;23;20036;-86
2022/09/16 01:41:44;;;;;;;3.40;2.88;;;12.50;99.90;;;;;;6106759;23;20029;-86
2022/09/16 01:44:52;;;;;;;3.75;3.17;;;12.50;99.90;;;;;;6206545;23;20028;-86
2022/09/16 01:47:33;;;;;;;4.10;3.70;;;12.50;99.90;;;;;;6134632;23;20017;-86
2022/09/16 01:50:25;;;;;;;5.07;3.50;;;12.50;99.90;;;;;;6157737;23;20033;-86
2022/09/16 01:53:22;;;;;;;4.72;3.47;;;12.40;99.90;;;;;;6157372;23;20033;-86
2022/09/16 01:56:21;;;;;;;7.00;3.90;;;12.50;99.90;;;;;;6157565;23;20020;-86
2022/09/16 01:59:04;;;;;;;2.70;2.50;;;12.50;99.90;;;;;;6158011;23;20014;-86
2022/09/16 02:01:47;;;;;;;6.03;4.10;;;12.50;99.90;;;;;;6157456;23;20029;-86
2022/09/16 02:04:22;;;;;;;6.18;2.95;;;12.50;99.90;;;;;;6157567;23;20017;-86
2022/09/16 02:07:01;;;;;;;3.63;3.33;;;12.50;99.90;;;;;;6157161;23;20025;-87
2022/09/16 02:09:47;;;;;;;3.95;3.30;;;12.40;99.90;;;;;;6152511;23;20036;-87
2022/09/16 02:12:28;;;;;;;10.20;3.42;;;12.50;99.90;;;;;;6180965;23;20032;-85
2022/09/16 02:15:02;;;;;;;3.08;2.88;;;12.60;99.90;;;;;;6183634;23;20028;-86
2022/09/16 02:17:36;;;;;;;3.78;2.97;;;12.40;99.90;;;;;;6186614;23;20036;-86
2022/09/16 02:20:23;;;;;;;3.35;3.10;;;12.50;99.90;;;;;;6144302;23;20020;-86
2022/09/16 02:23:00;;;;;;;3.05;2.75;;;12.40;99.90;;;;;;6158954;23;20024;-86
2022/09/16 02:25:34;;;;;;;3.05;2.83;;;12.40;99.90;;;;;;6157474;23;20025;-86
2022/09/16 02:28:11;;;;;;;5.43;2.80;;;12.30;99.90;;;;;;6140537;23;20318;-86
2022/09/16 02:30:48;;;;;;;2.35;2.15;;;12.30;99.90;;;;;;6140665;23;20341;-86
2022/09/16 02:33:24;;;;;;;3.75;3.50;;;12.10;99.90;;;;;;6211016;23;20017;-86
2022/09/16 02:35:58;;;;;;;7.15;2.72;;;12.00;99.90;;;;;;6169241;23;20009;-86
2022/09/16 02:38:43;;;;;;;3.33;3.00;;;12.00;99.90;;;;;;6135524;23;20024;-86
2022/09/16 02:41:13;;;;;;;3.38;2.90;;;12.00;99.90;;;;;;6134712;23;20025;-85
2022/09/16 02:43:45;;;;;;;3.53;3.22;;;12.00;99.90;;;;;;6159811;23;20017;-85
2022/09/16 02:46:31;;;;;;;6.45;2.67;;;12.00;99.90;;;;;;6209286;23;20360;-85
2022/09/16 02:49:32;;;;;;;5.20;3.13;;;12.00;99.90;;;;;;6183471;23;20032;-84
2022/09/16 02:52:30;;;;;;;3.20;2.85;;;11.90;99.90;;;;;;6117839;23;20348;-86
2022/09/16 02:55:05;;;;;;;5.40;2.60;;;11.90;99.90;;;;;;6099366;23;20025;-86
2022/09/16 02:57:37;;;;;;;3.50;2.95;;;11.90;99.90;;;;;;6068403;23;20157;-85
2022/09/16 03:00:09;;;;;;;8.05;3.33;;;11.90;99.90;;;;;;6102715;23;20500;-85
2022/09/16 03:02:47;;;;;;;4.07;3.53;;;12.00;99.90;;;;;;6081602;23;20030;-85
2022/09/16 03:05:15;;;;;;;6.03;3.22;;;12.00;99.90;;;;;;6132121;23;20022;-85
2022/09/16 03:07:46;;;;;;;2.92;2.25;;;12.00;99.90;;;;;;6103802;23;20029;-86
2022/09/16 03:10:17;;;;;;;4.53;3.95;;;12.00;99.90;;;;;;6079617;23;20114;-86
2022/09/16 03:13:21;;;;;;;5.15;4.43;;;12.00;99.90;;;;;;6123243;23;20036;-87
2022/09/16 03:16:23;;;;;;;7.35;3.33;;;12.10;99.90;;;;;;6133700;23;20021;-86
2022/09/16 03:19:38;;;;;;;9.70;4.22;;;12.10;99.90;;;;;;6114240;23;20441;-86
2022/09/16 03:23:14;;;;;;;5.78;3.13;;;12.10;99.90;;;;;;6114652;23;20017;-86
2022/09/16 04:04:17;;;;;;;;;;;;;;;;;;;;;
2022/09/16 04:49:34;;;;;;;12.98;5.78;;;11.90;99.90;;;;;;6181764;23;20024;-84
2022/09/16 04:52:09;;;;;;;14.68;5.13;;;11.90;99.90;;;;;;6162261;23;20017;-85
2022/09/16 04:58:03;;;;;;;;;;;;;;;;;;;;;
2022/09/16 05:01:50;;;;;;;5.90;4.30;;;12.00;99.90;;;;;;6174898;23;20025;-85
2022/09/16 05:04:42;;;;;;;5.97;5.22;;;12.10;99.90;;;;;;6170662;23;20084;-85
2022/09/16 05:07:15;;;;;;;5.93;4.38;;;12.20;99.90;;;;;;6187674;23;20025;-87
2022/09/16 05:10:03;;;;;;;6.25;4.88;;;12.20;99.90;;;;;;6108570;23;20065;-86
2022/09/16 05:12:39;;;;;;;8.05;5.30;;;12.20;99.90;;;;;;6066680;23;20068;-85
2022/09/16 05:15:17;;;;;;;7.50;5.00;;;12.20;99.90;;;;;;6124298;23;20353;-85
2022/09/16 05:18:08;;;;;;;7.28;3.90;;;12.30;99.90;;;;;;6066414;23;20029;-87
2022/09/16 05:21:15;;;;;;;7.10;4.50;;;12.30;99.90;;;;;;6083002;23;20492;-86
2022/09/16 05:24:07;;;;;;;5.03;4.53;;;12.30;99.90;;;;;;6059439;23;20017;-86
2022/09/16 05:26:52;;;;;;;6.20;3.88;;;12.30;99.90;;;;;;6102299;23;20421;-86
2022/09/16 05:30:45;;;;;;;6.20;4.60;;;12.30;99.90;;;;;;6111995;23;20126;-89
2022/09/16 05:33:33;;;;;;;5.43;4.70;;;12.30;99.90;;;;;;6083423;23;20366;-86
2022/09/16 05:36:14;;;;;;;8.48;4.50;;;12.30;99.90;;;;;;6179381;23;20017;-89
2022/09/16 05:39:32;;;;;;;5.10;3.92;;;12.30;99.90;;;;;;6136587;23;20019;-87
2022/09/16 05:43:08;;;;;;;8.23;4.70;;;12.30;99.90;;;;;;6133846;23;20035;-88
2022/09/16 05:47:01;;;;;;;5.00;4.22;;;12.30;99.90;;;;;;6069277;23;20031;-87
2022/09/16 05:50:37;;;;;;;10.70;5.03;;;12.20;99.90;;;;;;6148535;23;20051;-88
2022/09/16 05:53:50;;;;;;;;;;;;;;;;;;;;;
2022/09/16 05:57:40;;;;;;;6.00;5.07;;;12.20;99.90;;;;;;6135000;23;20036;-88
2022/09/16 06:00:45;;;;;;;5.82;5.13;;;12.30;99.90;;;;;;6122491;23;20036;-88
2022/09/16 06:07:32;;;;;;;9.27;6.97;;;12.30;99.90;;;;;;5923139;23;20032;-86
2022/09/16 06:15:06;;;;;;;6.40;4.30;;;12.20;99.90;;;;;;6015011;23;20027;-88
2022/09/16 06:27:30;;;;;;;6.05;3.35;;;12.30;99.90;;;;;;5934001;23;20041;-87
2022/09/16 06:31:00;;;;;;;8.30;4.88;;;12.30;99.90;;;;;;6064935;23;20034;-89
2022/09/16 06:33:45;;;;;;;11.35;5.18;;;12.30;99.90;;;;;;6176501;23;20020;-87
2022/09/16 06:40:56;;;;;;;6.45;5.40;;;12.40;99.90;;;;;;6143665;23;20035;-87
2022/09/16 06:44:10;;;;;;;12.07;6.03;;;12.60;99.90;;;;;;6167008;23;20074;-88
2022/09/16 06:46:57;;;;;;;9.00;4.72;;;12.50;99.90;;;;;;6137472;23;20024;-87
2022/09/16 06:51:27;;;;;;;7.03;4.85;;;12.50;99.90;;;;;;6104545;23;20624;-88
2022/09/16 06:54:53;;;;;;;;;;;;;;;;;;;;;
2022/09/16 07:02:25;;;;;;;7.43;5.00;;;12.50;99.90;;;;;;6086965;23;20698;-87
2022/09/16 07:05:31;;;;;;;6.10;4.57;;;12.50;99.90;;;;;;6057866;23;20034;-90
2022/09/16 07:08:56;;;;;;;5.75;5.15;;;12.50;99.90;;;;;;6079763;23;20054;-89
2022/09/16 07:12:55;;;;;;;7.03;6.30;;;12.50;99.90;;;;;;5986307;23;20059;-89
2022/09/16 07:16:34;;;;;;;10.13;5.97;;;12.50;99.90;;;;;;6007945;23;20035;-88
2022/09/16 07:19:41;;;;;;;5.15;4.65;;;12.40;99.90;;;;;;6011937;23;20050;-88
2022/09/16 07:22:53;;;;;;;7.30;4.68;;;12.60;99.90;;;;;;6045918;23;20069;-88
2022/09/16 07:30:16;;;;;;;5.78;4.95;;;12.60;99.90;;;;;;6107054;23;20492;-87
2022/09/16 07:34:12;;;;;;;6.07;5.47;;;12.60;99.90;;;;;;6034690;23;20034;-87
2022/09/16 07:37:17;;;;;;;6.55;5.68;;;12.60;99.90;;;;;;6088351;23;20034;-90
2022/09/16 07:40:48;;;;;;;7.70;4.70;;;12.60;99.90;;;;;;6114605;23;20024;-87
2022/09/16 07:43:58;;;;;;;5.75;5.15;;;12.60;99.90;;;;;;6122746;23;20098;-88
2022/09/16 07:47:37;;;;;;;8.32;5.13;;;12.60;99.90;;;;;;6087164;23;20033;-88
2022/09/16 07:51:27;;;;;;;6.43;5.43;;;12.70;99.90;;;;;;6086756;23;20044;-88
2022/09/16 07:54:38;;;;;;;6.85;5.75;;;12.80;99.90;;;;;;6089176;23;20341;-86
2022/09/16 07:57:49;;;;;;;19.45;5.70;;;12.80;99.90;;;;;;6115622;23;20030;-87
2022/09/16 08:09:29;;;;;;;;;;;;;;;;;;;;;
2022/09/16 08:13:18;;;;;;;8.05;5.75;;;13.30;99.90;;;;;;6073473;23;20027;-88
2022/09/16 08:16:26;;;;;;;9.07;7.50;;;13.30;99.90;;;;;;6074100;23;20106;-87
2022/09/16 08:19:32;;;;;;;6.30;5.70;;;13.30;99.90;;;;;;6117446;23;20854;-87
2022/09/16 08:22:28;;;;;;;6.45;5.55;;;13.30;99.90;;;;;;6053587;23;20034;-86
2022/09/16 08:32:30;;;;;;;9.20;5.37;;;13.40;99.90;;;;;;6160262;23;20029;-85
2022/09/16 08:40:30;;;;;;;7.53;5.97;;;13.40;99.90;;;;;;6032253;23;20062;-88
2022/09/16 08:43:23;;;;;;;7.22;5.40;;;13.40;99.90;;;;;;6058451;23;20509;-87
2022/09/16 08:46:42;;;;;;;;;;;;;;;;;;;;;
2022/09/16 08:50:55;;;;;;;;;;;;;;;;;;;;;
2022/09/16 08:58:20;;;;;;;5.97;5.20;;;13.80;99.90;;;;;;6150964;23;20029;-87
2022/09/16 09:01:04;;;;;;;8.70;5.68;;;13.80;99.90;;;;;;6153087;23;20025;-88
2022/09/16 09:03:56;;;;;;;11.07;6.40;;;13.90;99.90;;;;;;6138499;23;20813;-87
2022/09/16 09:07:07;;;;;;;8.10;6.00;;;13.90;99.90;;;;;;6170633;23;20020;-86
2022/09/16 09:09:43;;;;;;;10.73;6.40;;;13.90;99.90;;;;;;6177395;23;20021;-88
2022/09/16 09:12:41;;;;;;;5.80;5.13;;;13.90;99.90;;;;;;6162683;23;20060;-86
2022/09/16 09:15:29;;;;;;;6.20;5.55;;;13.90;99.90;;;;;;6159407;23;20510;-87
2022/09/16 09:18:31;;;;;;;9.57;5.88;;;14.00;99.90;;;;;;6171289;23;20035;-86
2022/09/16 09:21:13;;;;;;;8.05;5.72;;;14.20;99.90;;;;;;6158436;23;20020;-86
2022/09/16 09:23:56;;;;;;;16.88;6.93;;;14.00;99.90;;;;;;6184298;23;20039;-86
2022/09/16 09:26:47;;;;;;;7.68;5.43;;;14.00;99.90;;;;;;6191110;23;20031;-87
2022/09/16 09:29:23;;;;;;;8.27;5.15;;;14.10;99.90;;;;;;6182110;23;20029;-88
2022/09/16 09:32:12;;;;;;;9.27;5.35;;;14.10;99.90;;;;;;6158745;23;20020;-87
2022/09/16 09:34:46;;;;;;;7.03;6.32;;;14.20;99.90;;;;;;6207758;23;20017;-87
2022/09/16 09:37:36;;;;;;;;;;;14.10;99.90;;;;;;6182844;23;20033;-87
2022/09/16 09:40:38;;;;;;;7.03;6.07;;;14.20;99.90;;;;;;6191946;23;19924;-86
2022/09/16 09:43:18;;;;;;;8.75;6.45;;;14.10;99.90;;;;;;6208609;23;20024;-86
2022/09/16 09:46:20;;;;;;;6.47;5.20;;;14.10;99.90;;;;;;6182512;23;20039;-86
2022/09/16 09:49:29;;;;;;;15.23;7.38;;;14.10;99.90;;;;;;6153270;23;20247;-86
2022/09/16 09:52:14;;;;;;;13.35;6.40;;;14.10;99.90;;;;;;6192480;23;20020;-86
2022/09/16 09:54:47;;;;;;;8.05;5.97;;;14.00;99.90;;;;;;6182822;23;20017;-85
2022/09/16 09:57:28;;;;;;;7.65;6.43;;;14.00;99.90;;;;;;6158477;23;20076;-86
2022/09/16 10:00:10;;;;;;;8.80;5.82;;;14.00;99.90;;;;;;6134302;23;20024;-86
2022/09/16 10:02:43;;;;;;;9.98;6.18;;;14.10;99.90;;;;;;6182765;23;20024;-87
2022/09/16 10:05:25;;;;;;;7.68;6.05;;;14.00;99.90;;;;;;6186674;23;20035;-86
2022/09/16 10:08:22;;;;;;;9.30;4.55;;;14.10;99.90;;;;;;6158529;23;20017;-87
2022/09/16 10:10:55;;;;;;;14.10;8.20;;;14.20;99.90;;;;;;6160395;23;20031;-86
2022/09/16 10:13:25;;;;;;;8.45;6.90;;;14.20;99.90;;;;;;6186883;23;20036;-87
2022/09/16 10:16:09;;;;;;;6.25;5.05;;;14.20;99.90;;;;;;6133915;23;20021;-86
2022/09/16 10:18:52;;;;;;;10.77;6.65;;;14.20;99.90;;;;;;6183571;23;20341;-89
2022/09/16 10:21:20;;;;;;;8.30;5.95;;;14.20;99.90;;;;;;6156992;23;20070;-86
2022/09/16 10:23:56;;;;;;;11.73;5.68;;;14.20;99.90;;;;;;6157754;23;20475;-85
2022/09/16 10:26:30;;;;;;;8.18;5.22;;;14.10;99.90;;;;;;6085429;23;20025;-87
2022/09/16 10:29:02;;;;;;;10.00;7.28;;;14.10;99.90;;;;;;6186080;23;20025;-86
2022/09/16 10:31:41;;;;;;;5.77;5.20;;;13.80;99.90;;;;;;6185052;23;20017;-88
2022/09/16 10:34:21;;;;;;;8.73;5.93;;;13.90;99.90;;;;;;6177576;23;20307;-86
2022/09/16 10:37:22;;;;;;;7.07;5.50;;;13.90;99.90;;;;;;6133216;23;20029;-85
2022/09/16 10:39:55;;;;;;;6.25;5.38;;;13.80;99.90;;;;;;6124416;23;20028;-86
2022/09/16 10:42:27;;;;;;;7.43;5.40;;;13.80;99.90;;;;;;6126371;23;20334;-86
2022/09/16 10:45:24;;;;;;;7.93;5.28;;;13.70;99.90;;;;;;6152717;23;20048;-87
2022/09/16 10:48:00;;;;;;;8.70;4.80;;;13.70;99.90;;;;;;6129704;23;20021;-86
2022/09/16 10:51:07;;;;;;;13.35;5.40;;;13.80;99.90;;;;;;6166686;23;20032;-88
2022/09/16 10:53:59;;;;;;;7.18;5.05;;;13.70;99.90;;;;;;6147903;23;20029;-89
2022/09/16 10:57:03;;;;;;;7.65;5.80;;;13.80;99.90;;;;;;6164612;23;20356;-87
2022/09/16 10:59:33;;;;;;;8.18;5.78;;;13.80;99.90;;;;;;6204185;23;20047;-87
2022/09/16 11:02:33;;;;;;;12.40;6.07;;;13.90;99.90;;;;;;6179686;23;20542;-87
2022/09/16 11:14:31;;;;;;;;;;;13.60;99.90;;;;;;6139646;23;20017;-88
2022/09/16 11:17:45;;;;;;;9.95;7.57;;;13.50;99.90;;;;;;6101675;23;19920;-88
2022/09/16 11:21:36;;;;;;;8.10;6.78;;;13.40;99.90;;;;;;6035370;23;20027;-85
2022/09/16 11:24:28;;;;;;;12.55;8.02;;;13.20;99.90;;;;;;6034637;23;20023;-89
2022/09/16 11:27:06;;;;;;;9.80;8.48;;;13.10;99.90;;;;;;6060177;23;20034;-88
2022/09/16 11:30:11;;;;;;;10.43;7.80;;;12.90;99.90;;;;;;6063257;23;20743;-89
2022/09/16 11:32:52;;;;;;;9.38;7.65;;;12.80;99.90;;;;;;5999277;23;20494;-87
2022/09/16 11:35:28;;;;;;;10.82;7.88;;;12.90;99.90;;;;;;6090670;23;20056;-86
2022/09/16 11:39:14;;;;;;;11.35;7.80;;;12.90;99.90;;;;;;6102690;23;20029;-87
2022/09/16 11:42:34;;;;;;;9.23;8.18;;;12.80;99.90;;;;;;6114892;23;20021;-86
2022/09/16 11:45:33;;;;;;;12.30;8.15;;;13.00;99.90;;;;;;6098377;23;20694;-87
2022/09/16 11:48:48;;;;;;;9.73;7.45;;;13.10;99.90;;;;;;6118425;23;20024;-83
2022/09/16 11:51:52;;;;;;;10.77;6.65;;;12.80;99.90;;;;;;6160411;23;20017;-87
2022/09/16 11:55:15;;;;;;;8.88;6.68;;;12.60;99.90;;;;;;6132748;23;20045;-83
2022/09/16 11:58:02;;;;;;;11.73;8.63;;;12.60;99.90;;;;;;6204950;23;20031;-84
2022/09/16 12:00:33;;;;;;;9.90;7.60;;;12.50;99.90;;;;;;6189797;23;20024;-84
2022/09/16 12:03:13;;;;;;;7.80;7.05;;;12.50;99.90;;;;;;6220350;23;20754;-82
2022/09/16 12:05:49;;;;;;;6.07;5.45;;;12.30;99.90;;;;;;6211320;23;20451;-80
2022/09/16 12:08:30;;;;;;;8.50;7.43;;;12.10;99.90;;;;;;6218057;22;20789;-82
2022/09/16 12:11:04;;;;;;;7.40;6.30;;;12.00;99.90;;;;;;6219436;23;20023;-83
2022/09/16 12:14:01;;;;;;;9.00;5.45;;;12.00;99.90;;;;;;6211676;23;20348;-84
2022/09/16 12:16:51;;;;;;;4.60;4.20;;;11.80;99.90;;;;;;6199359;22;20017;-86
2022/09/16 12:19:33;;;;;;;16.13;7.60;;;11.70;99.90;;;;;;6159350;23;20715;-87
2022/09/16 12:22:19;;;;;;;4.63;4.25;;;11.60;99.90;;;;;;6183732;23;20047;-81
2022/09/16 12:25:03;;;;;;;5.47;3.35;;;11.40;99.90;;;;;;6188996;23;20032;-81
2022/09/16 12:32:04;;;;;;;;;;;;;;;;;;;;;
2022/09/16 12:35:18;;;;;;;4.00;3.60;;;10.60;99.90;;;;;;6193888;23;20328;-87
2022/09/16 12:38:29;;;;;;;4.60;3.53;;;10.60;99.90;;;;;;6172237;23;20055;-88
2022/09/16 12:41:40;;;;;;;4.57;2.95;;;10.60;99.90;;;;;;6158534;23;20025;-87
2022/09/16 12:45:13;;;;;;;4.05;3.65;;;10.60;99.90;;;;;;6171503;23;20055;-87
2022/09/16 12:48:23;;;;;;;5.82;5.30;;;10.50;99.90;;;;;;6166161;23;20467;-88
2022/09/16 12:54:57;;;;;;;4.43;3.22;;;10.60;99.90;;;;;;6180133;23;20029;-86
2022/09/16 12:58:04;;;;;;;5.82;4.25;;;10.70;99.90;;;;;;6111380;23;20033;-84
2022/09/16 13:00:58;;;;;;;3.50;2.85;;;10.60;99.90;;;;;;6184695;23;20029;-84
2022/09/16 13:03:31;;;;;;;4.75;4.00;;;10.50;99.90;;;;;;6162112;23;20021;-85
2022/09/16 13:06:05;;;;;;;3.78;2.90;;;10.40;99.90;;;;;;6154226;23;20021;-83
2022/09/16 13:09:09;;;;;;;4.75;2.95;;;10.50;99.90;;;;;;6128140;23;20021;-84
2022/09/16 13:12:25;;;;;;;4.03;3.40;;;10.70;99.90;;;;;;6128242;23;20663;-84
2022/09/16 13:16:21;;;;;;;2.78;2.58;;;11.00;99.90;;;;;;6118740;23;20072;-90
2022/09/16 13:19:23;;;;;;;5.65;3.95;;;10.90;99.90;;;;;;6190070;23;20023;-85
2022/09/16 13:22:08;;;;;;;4.70;3.63;;;10.70;99.90;;;;;;6204243;23;20032;-84
2022/09/16 13:24:41;;;;;;;3.38;3.05;;;10.60;99.90;;;;;;6131914;23;20341;-85
2022/09/16 13:28:23;;;;;;;;;;;10.70;99.90;;;;;;6173643;23;20033;-85
2022/09/16 13:31:27;;;;;;;4.28;3.13;;;10.50;99.90;;;;;;6189239;23;20532;-82
2022/09/16 13:33:57;;;;;;;5.05;4.10;;;10.50;99.90;;;;;;6181030;23;20349;-81
2022/09/16 13:36:25;;;;;;;10.77;5.00;;;10.50;99.90;;;;;;6186951;23;20887;-85
2022/09/16 13:40:20;;;;;;;5.20;3.38;;;10.50;99.90;;;;;;6153149;23;20447;-84
2022/09/16 13:43:12;;;;;;;4.68;3.38;;;10.40;99.90;;;;;;6090777;23;20029;-83
2022/09/16 13:45:45;;;;;;;4.25;3.05;;;10.30;99.90;;;;;;6181937;23;20029;-82
2022/09/16 13:48:52;;;;;;;5.13;4.60;;;10.30;99.90;;;;;;6161181;23;20021;-85
2022/09/16 13:52:28;;;;;;;3.25;2.95;;;10.30;99.90;;;;;;6146202;23;20036;-84
2022/09/16 13:55:30;;;;;;;3.15;2.90;;;10.40;99.90;;;;;;6052755;23;20030;-87
2022/09/16 13:58:27;;;;;;;3.90;3.40;;;10.40;99.90;;;;;;6209323;23;20502;-84
2022/09/16 14:02:20;;;;;;;2.60;2.30;;;10.40;99.90;;;;;;6190882;23;20039;-85
2022/09/16 14:35:54;;;;;;;;;;;10.40;99.90;;;;;;5956138;23;20034;-87
2022/09/16 14:39:42;;;;;;;4.50;4.10;;;10.30;99.90;;;;;;6097961;23;19920;-85
2022/09/16 14:42:18;;;;;;;3.97;3.55;;;10.30;99.90;;;;;;6129222;23;20040;-85
2022/09/16 15:07:15;;;;;;;4.15;3.78;;;10.40;99.90;;;;;;6181030;23;20080;-87
2022/09/16 15:28:27;;;;;;;7.15;2.53;;;10.50;99.90;;;;;;6125154;23;20027;-85
2022/09/16 15:39:24;;;;;;;6.25;3.30;;;10.70;99.90;;;;;;6173429;23;20032;-83
2022/09/16 15:42:19;;;;;;;3.90;3.25;;;10.60;99.90;;;;;;6182584;23;20808;-84
2022/09/16 15:46:02;;;;;;;3.53;3.22;;;10.60;99.90;;;;;;6234676;23;20023;-86
2022/09/16 15:49:26;;;;;;;3.20;2.90;;;10.70;99.90;;;;;;6177261;23;20021;-85
2022/09/16 15:51:57;;;;;;;3.17;2.88;;;10.70;99.90;;;;;;6193871;23;20012;-84
2022/09/16 15:54:36;;;;;;;5.25;4.30;;;10.70;99.90;;;;;;6159227;23;20024;-85
2022/09/16 15:57:21;;;;;;;6.90;4.70;;;10.60;99.90;;;;;;6213332;23;20020;-84
2022/09/16 16:00:12;;;;;;;3.45;3.15;;;10.60;99.90;;;;;;6159568;23;20026;-85
2022/09/16 16:02:41;;;;;;;;;;;10.70;99.90;;;;;;6218947;23;20031;-85
2022/09/16 16:05:31;;;;;;;6.97;3.28;;;10.80;99.90;;;;;;6184007;23;19922;-85
2022/09/16 16:08:46;;;;;;;5.72;3.65;;;10.70;99.90;;;;;;6137028;23;20029;-85
2022/09/16 16:16:26;;;;;;;;;;;;;;;;;;;;;
2022/09/16 16:19:57;;;;;;;5.35;3.67;;;10.60;99.90;;;;;;6170928;23;20834;-86
2022/09/16 16:23:22;;;;;;;3.78;2.58;;;10.50;99.90;;;;;;6117844;23;20035;-86
2022/09/16 16:26:40;;;;;;;2.58;2.38;;;10.50;99.90;;;;;;6167931;23;20029;-85
2022/09/16 16:29:35;;;;;;;5.50;3.90;;;10.60;99.90;;;;;;6041779;23;20591;-86
2022/09/16 16:32:51;;;;;;;8.38;2.85;;;10.60;99.90;;;;;;6115951;23;20352;-86
2022/09/16 16:41:23;;;;;;;3.63;3.20;;;10.60;99.90;;;;;;6183554;23;20037;-86
2022/09/16 16:44:26;;;;;;;3.35;3.05;;;10.60;99.90;;;;;;6131172;23;20024;-83
2022/09/16 16:47:45;;;;;;;4.22;3.80;;;10.50;99.90;;;;;;6137866;23;20040;-86
2022/09/16 16:50:57;;;;;;;3.28;3.00;;;10.60;99.90;;;;;;6065176;23;20018;-85
2022/09/16 16:54:46;;;;;;;6.82;3.13;;;10.60;99.90;;;;;;6061661;23;20363;-84
2022/09/16 16:57:53;;;;;;;7.45;3.58;;;10.50;99.90;;;;;;6115246;23;20033;-87
2022/09/16 17:01:13;;;;;;;4.15;3.33;;;10.50;99.90;;;;;;6100925;23;20029;-84
2022/09/16 17:03:50;;;;;;;4.15;3.78;;;10.50;99.90;;;;;;6154425;23;20810;-84
2022/09/16 17:06:17;;;;;;;3.95;3.40;;;10.50;99.90;;;;;;6151644;23;20032;-84
2022/09/16 17:08:48;;;;;;;3.58;3.28;;;10.50;99.90;;;;;;6158397;23;20020;-86
2022/09/16 17:11:22;;;;;;;4.53;3.95;;;10.40;99.90;;;;;;6167930;23;20013;-85
2022/09/16 17:13:52;;;;;;;5.05;3.60;;;10.50;99.90;;;;;;6166337;23;20032;-83
2022/09/16 17:16:29;;;;;;;5.75;3.92;;;10.50;99.90;;;;;;6190802;23;20016;-85
2022/09/16 17:19:00;;;;;;;3.85;3.53;;;10.50;99.90;;;;;;6191621;23;20444;-82
2022/09/16 17:21:33;;;;;;;3.97;3.63;;;10.50;99.90;;;;;;6155619;23;20052;-82
2022/09/16 17:24:07;;;;;;;4.55;4.15;;;10.50;99.90;;;;;;6164121;23;20013;-83
2022/09/16 17:26:35;;;;;;;4.85;3.60;;;10.50;99.90;;;;;;6156479;23;20020;-82
2022/09/16 17:29:03;;;;;;;4.68;4.07;;;10.50;99.90;;;;;;6125098;23;20026;-82
2022/09/16 17:31:42;;;;;;;4.00;3.60;;;10.50;99.90;;;;;;6067630;23;20029;-81
2022/09/16 17:34:14;;;;;;;6.28;3.88;;;10.50;99.90;;;;;;6086095;23;20026;-81
2022/09/16 17:36:45;;;;;;;4.07;3.70;;;10.50;99.90;;;;;;6121386;23;20033;-82
2022/09/16 17:39:17;;;;;;;4.50;3.67;;;10.50;99.90;;;;;;6068220;23;20385;-83
2022/09/16 17:41:47;;;;;;;5.45;4.32;;;10.50;99.90;;;;;;6127827;23;20040;-82
2022/09/16 17:44:16;;;;;;;4.50;4.10;;;10.50;99.90;;;;;;6154421;23;20032;-82
2022/09/16 17:46:45;;;;;;;4.72;4.20;;;10.50;99.90;;;;;;6149784;23;20409;-82
2022/09/16 17:49:17;;;;;;;4.00;3.50;;;10.50;99.90;;;;;;6150001;23;20033;-83
2022/09/16 17:51:45;;;;;;;5.70;4.55;;;10.50;99.90;;;;;;6120617;23;20021;-81
2022/09/16 17:54:20;;;;;;;4.90;4.40;;;10.40;99.90;;;;;;6132928;23;20031;-83
2022/09/16 17:56:47;;;;;;;5.50;4.82;;;10.40;99.90;;;;;;6189214;23;20024;-84
2022/09/16 17:59:17;;;;;;;7.57;5.25;;;10.40;99.90;;;;;;6182674;23;20482;-83
2022/09/16 18:01:45;;;;;;;5.50;4.55;;;10.40;99.90;;;;;;6207190;23;20082;-83
2022/09/16 18:04:12;;;;;;;4.90;4.40;;;10.40;99.90;;;;;;6156545;23;20028;-83
2022/09/16 18:06:42;;;;;;;5.18;4.70;;;10.40;99.90;;;;;;6219061;23;20024;-85
2022/09/16 18:09:11;;;;;;;6.95;3.83;;;10.50;99.90;;;;;;6181035;23;20364;-83
2022/09/16 18:11:39;;;;;;;4.88;4.18;;;10.30;99.90;;;;;;6219167;23;20016;-83
2022/09/16 18:14:10;;;;;;;6.85;4.38;;;10.30;99.90;;;;;;6208852;23;20028;-83
2022/09/16 18:16:38;;;;;;;4.35;3.70;;;10.30;99.90;;;;;;6215497;23;20039;-82
2022/09/16 18:19:06;;;;;;;4.38;3.85;;;10.30;99.90;;;;;;6219274;23;20017;-82
2022/09/16 18:21:34;;;;;;;4.90;3.95;;;10.30;99.90;;;;;;6209424;23;20036;-83
2022/09/16 18:24:03;;;;;;;4.72;4.30;;;10.20;99.90;;;;;;6218331;23;20017;-84
2022/09/16 18:26:31;;;;;;;9.95;5.43;;;10.20;99.90;;;;;;6182557;23;20027;-83
2022/09/16 18:29:01;;;;;;;4.40;3.85;;;10.20;99.90;;;;;;6214738;23;20031;-84
2022/09/16 18:31:43;;;;;;;4.20;3.80;;;10.30;99.90;;;;;;6220076;23;20035;-84
2022/09/16 18:34:12;;;;;;;5.45;4.47;;;10.30;99.90;;;;;;6182686;23;20028;-85
2022/09/16 18:36:42;;;;;;;4.07;3.20;;;10.30;99.90;;;;;;6180413;23;20812;-84
2022/09/16 18:39:13;;;;;;;6.88;5.45;;;10.30;99.90;;;;;;6157989;23;20475;-85
2022/09/16 18:41:43;;;;;;;6.22;4.55;;;10.30;99.90;;;;;;6208440;23;20028;-85
2022/09/16 18:44:18;;;;;;;4.43;3.88;;;10.30;99.90;;;;;;6133681;23;20021;-84
2022/09/16 18:46:46;;;;;;;5.38;4.63;;;10.40;99.90;;;;;;6158505;23;20028;-85
2022/09/16 18:49:15;;;;;;;6.20;3.92;;;10.30;99.90;;;;;;6186778;23;20409;-84
2022/09/16 18:51:46;;;;;;;5.82;5.22;;;10.30;99.90;;;;;;6157768;23;20031;-84
2022/09/16 18:54:30;;;;;;;5.97;4.45;;;10.40;99.90;;;;;;6143513;23;20351;-85
2022/09/16 18:57:00;;;;;;;6.30;4.03;;;10.30;99.90;;;;;;6187687;23;20027;-84
2022/09/16 18:59:31;;;;;;;7.15;4.82;;;10.40;99.90;;;;;;6183366;23;20347;-85
2022/09/16 19:02:12;;;;;;;6.47;5.13;;;10.40;99.90;;;;;;6158691;23;20036;-85
2022/09/16 19:04:41;;;;;;;5.10;4.50;;;10.40;99.90;;;;;;6163651;23;20466;-84
2022/09/16 19:07:12;;;;;;;5.30;4.00;;;10.30;99.90;;;;;;6220378;23;20447;-85
2022/09/16 19:09:43;;;;;;;3.67;3.38;;;10.30;99.90;;;;;;6157033;23;20442;-85
2022/09/16 19:12:12;;;;;;;5.13;4.05;;;10.20;99.90;;;;;;6218722;23;20028;-85
2022/09/16 19:14:40;;;;;;;5.85;4.97;;;10.30;99.90;;;;;;6194889;23;20016;-85
2022/09/16 19:17:07;;;;;;;9.23;5.40;;;10.30;99.90;;;;;;6215048;23;20490;-85